North Haverhill, New Hampshire
Current Conditions -  °F | °C
As of 2:55 AM on Wednesday 22 Oct 2014 (Local Time) from K1P1 Reporting Station
Drizzle Drizzle  
Wind Chill: 47°   Ceiling: 200
Heat Index: 47°   Visibility: 4mi
Dew Point: 47°   Wind: 0mph
Humidity: 100%   Direction: NA
Pressure: 30.06"   Gusts: NA
Location:  44.09°N, 72.03°W
Report Text: K1P1 220655Z AUTO 00000KT 4SM -DZ BKN002 OVC027 09/09 A3006 RMK AO2 P0001 T00860086
Loading
Personal Weather Stations






























Interactive Weather Map
Tropical Storm Tracking
New forecast layout! Learn more

10-Day Weather Forecast

Advertisements
Track Severe Weather on mobile